Time;durP1;ratioP1;P1;durP2;ratioP2;P2;SDS_P1;SDS_P2;PMS_P1;PMS_P2;Temp;Humidity;BMP_temperature;BMP_pressure;BME280_temperature;BME280_humidity;BME280_pressure;Samples;Min_cycle;Max_cycle;Signal;HPM_P1;HPM_P2
2021/04/22 00:01:03;;;;;;;;;;;6.80;99.90;;;;;;5093159;28;20419;-72
2021/04/22 00:03:28;;;;;;;;;;;6.80;99.90;;;;;;5091780;28;19908;-73
2021/04/22 00:05:54;;;;;;;;;;;6.80;99.90;;;;;;5092524;28;19908;-74
2021/04/22 00:08:20;;;;;;;;;;;6.90;99.90;;;;;;5090440;28;19927;-74
2021/04/22 00:10:48;;;;;;;;;;;6.90;99.90;;;;;;5092584;28;20355;-74
2021/04/22 00:13:15;;;;;;;;;;;6.90;99.90;;;;;;5090267;28;19970;-74
2021/04/22 00:15:41;;;;;;;;;;;6.90;99.90;;;;;;5092533;28;19907;-74
2021/04/22 00:18:07;;;;;;;;;;;6.90;99.90;;;;;;5091655;28;20482;-73
2021/04/22 00:20:35;;;;;;;;;;;6.90;99.90;;;;;;5089110;28;19939;-74
2021/04/22 00:23:00;;;;;;;;;;;6.90;99.90;;;;;;5093263;28;19914;-75
2021/04/22 00:25:26;;;;;;;;;;;7.00;99.90;;;;;;5090774;28;20006;-74
2021/04/22 00:27:51;;;;;;;;;;;7.10;99.90;;;;;;5090631;28;19947;-74
2021/04/22 00:30:17;;;;;;;;;;;7.00;99.90;;;;;;5093286;28;19912;-73
2021/04/22 00:32:43;;;;;;;;;;;7.00;99.90;;;;;;5091290;28;19908;-74
2021/04/22 00:35:09;;;;;;;;;;;7.10;99.90;;;;;;5092664;28;19915;-75
2021/04/22 00:37:35;;;;;;;;;;;7.10;99.90;;;;;;5092647;28;20403;-74
2021/04/22 00:40:01;;;;;;;;;;;7.10;99.90;;;;;;5093101;28;19916;-74
2021/04/22 00:42:26;;;;;;;;;;;7.10;99.90;;;;;;5092052;28;19908;-74
2021/04/22 00:44:52;;;;;;;;;;;7.10;99.90;;;;;;5093109;28;19960;-74
2021/04/22 00:47:18;;;;;;;;;;;7.10;99.90;;;;;;5093395;28;20549;-74
2021/04/22 00:49:44;;;;;;;;;;;7.10;99.90;;;;;;5094573;28;19931;-74
2021/04/22 00:52:10;;;;;;;;;;;7.10;99.90;;;;;;5112632;28;19908;-74
2021/04/22 00:54:39;;;;;;;;;;;7.10;99.90;;;;;;5112276;28;19913;-74
2021/04/22 00:57:05;;;;;;;;;;;7.20;99.90;;;;;;5112493;28;20313;-75
2021/04/22 00:59:31;;;;;;;;;;;7.20;99.90;;;;;;5111185;28;19912;-73
2021/04/22 01:01:56;;;;;;;;;;;7.20;99.90;;;;;;5110538;28;19918;-75
2021/04/22 01:04:22;;;;;;;;;;;7.20;99.90;;;;;;5115000;28;19896;-74
2021/04/22 01:06:47;;;;;;;;;;;7.20;99.90;;;;;;5115844;28;19916;-75
2021/04/22 01:09:14;;;;;;;;;;;7.20;99.90;;;;;;5116699;28;19911;-75
2021/04/22 01:11:40;;;;;;;;;;;7.20;99.90;;;;;;5115293;28;19906;-75
2021/04/22 01:14:06;;;;;;;;;;;7.20;99.90;;;;;;5106938;28;20023;-74
2021/04/22 01:16:32;;;;;;;;;;;7.20;99.90;;;;;;5095994;28;19951;-74
2021/04/22 01:18:57;;;;;;;;;;;7.20;99.90;;;;;;5095431;28;20069;-74
2021/04/22 01:21:24;;;;;;;;;;;7.20;99.90;;;;;;5092610;28;19915;-75
2021/04/22 01:23:49;;;;;;;;;;;7.20;99.90;;;;;;5093331;28;19916;-75
2021/04/22 01:26:17;;;;;;;;;;;7.20;99.90;;;;;;5092546;28;20380;-75
2021/04/22 01:28:43;;;;;;;;;;;7.10;99.90;;;;;;5088725;28;20277;-74
2021/04/22 01:31:08;;;;;;;;;;;7.10;99.90;;;;;;5089842;28;19908;-75
2021/04/22 01:33:34;;;;;;;;;;;7.10;99.90;;;;;;5090408;28;19912;-74
2021/04/22 01:35:59;;;;;;;;;;;7.10;99.90;;;;;;5091788;28;19908;-75
2021/04/22 01:38:25;;;;;;;;;;;7.00;99.90;;;;;;5091129;28;19912;-75
2021/04/22 01:40:51;;;;;;;;;;;7.00;99.90;;;;;;5090867;28;20365;-75
2021/04/22 01:43:17;;;;;;;;;;;6.80;99.90;;;;;;5091686;28;19999;-74
2021/04/22 01:45:43;;;;;;;;;;;6.70;99.90;;;;;;5091398;28;19962;-75
2021/04/22 01:48:08;;;;;;;;;;;6.60;99.90;;;;;;5090717;28;19908;-74
2021/04/22 01:50:35;;;;;;;;;;;6.50;99.90;;;;;;5091073;28;19944;-75
2021/04/22 01:53:01;;;;;;;;;;;6.50;99.90;;;;;;5090426;28;19960;-75
2021/04/22 01:55:38;;;;;;;;;;;6.50;99.90;;;;;;5093419;28;20306;-74
2021/04/22 01:58:05;;;;;;;;;;;6.40;99.90;;;;;;5094757;28;20348;-74
2021/04/22 02:00:36;;;;;;;;;;;6.40;99.90;;;;;;5093955;28;19912;-75
2021/04/22 02:03:05;;;;;;;;;;;6.40;99.90;;;;;;5094251;28;20272;-75
2021/04/22 02:05:30;;;;;;;;;;;6.40;99.90;;;;;;5094611;28;19908;-75
2021/04/22 02:07:56;;;;;;;;;;;6.40;99.90;;;;;;5094357;28;20276;-75
2021/04/22 02:10:21;;;;;;;;;;;6.40;99.90;;;;;;5094716;28;19912;-75
2021/04/22 02:12:48;;;;;;;;;;;6.30;99.90;;;;;;5093420;28;19907;-75
2021/04/22 02:15:15;;;;;;;;;;;6.30;99.90;;;;;;5093158;28;20272;-75
2021/04/22 02:17:43;;;;;;;;;;;6.30;99.90;;;;;;5094066;28;19920;-75
2021/04/22 02:20:09;;;;;;;;;;;6.20;99.90;;;;;;5093493;28;19912;-75
2021/04/22 02:22:35;;;;;;;;;;;6.30;99.90;;;;;;5093851;28;19908;-75
2021/04/22 02:25:01;;;;;;;;;;;6.20;99.90;;;;;;5091734;28;20033;-75
2021/04/22 02:27:26;;;;;;;;;;;6.20;99.90;;;;;;5093238;28;19908;-75
2021/04/22 02:29:52;;;;;;;;;;;6.20;99.90;;;;;;5094675;28;19931;-75
2021/04/22 02:32:17;;;;;;;;;;;6.20;99.90;;;;;;5092844;28;19912;-75
2021/04/22 02:34:43;;;;;;;;;;;6.20;99.90;;;;;;5093893;28;19914;-74
2021/04/22 02:37:08;;;;;;;;;;;6.20;99.90;;;;;;5092993;28;19920;-74
2021/04/22 02:39:34;;;;;;;;;;;6.20;99.90;;;;;;5094184;28;19908;-74
2021/04/22 02:41:59;;;;;;;;;;;6.30;99.90;;;;;;5093621;28;19943;-75
2021/04/22 02:44:25;;;;;;;;;;;6.40;99.90;;;;;;5092695;28;19915;-74
2021/04/22 02:46:50;;;;;;;;;;;6.40;99.90;;;;;;5092569;28;19908;-74
2021/04/22 02:49:16;;;;;;;;;;;6.50;99.90;;;;;;5093665;28;19965;-74
2021/04/22 02:51:41;;;;;;;;;;;6.60;99.90;;;;;;5093825;28;20363;-75
2021/04/22 02:54:07;;;;;;;;;;;6.60;99.90;;;;;;5094393;28;19999;-74
2021/04/22 02:56:32;;;;;;;;;;;6.60;99.90;;;;;;5093552;28;19957;-73
2021/04/22 02:58:58;;;;;;;;;;;6.60;99.90;;;;;;5093919;28;19931;-73
2021/04/22 03:01:23;;;;;;;;;;;6.60;99.90;;;;;;5095793;28;19933;-73
2021/04/22 03:03:49;;;;;;;;;;;6.60;99.90;;;;;;5109451;28;19892;-74
2021/04/22 03:06:14;;;;;;;;;;;6.60;99.90;;;;;;5113599;28;19915;-73
2021/04/22 03:08:40;;;;;;;;;;;6.60;99.90;;;;;;5115661;28;19915;-74
2021/04/22 03:11:05;;;;;;;;;;;6.50;99.90;;;;;;5114895;28;19914;-75
2021/04/22 03:13:31;;;;;;;;;;;6.50;99.90;;;;;;5101908;28;19908;-73
2021/04/22 03:15:56;;;;;;;;;;;6.50;99.90;;;;;;5097052;28;19916;-73
2021/04/22 03:18:22;;;;;;;;;;;6.40;99.90;;;;;;5094972;28;19971;-73
2021/04/22 03:20:47;;;;;;;;;;;6.40;99.90;;;;;;5094495;28;19912;-74
2021/04/22 03:23:13;;;;;;;;;;;6.30;99.90;;;;;;5093248;28;20406;-74
2021/04/22 03:25:38;;;;;;;;;;;6.20;99.90;;;;;;5094360;28;19907;-74
2021/04/22 03:28:04;;;;;;;;;;;6.20;99.90;;;;;;5094113;28;19915;-74
2021/04/22 03:30:30;;;;;;;;;;;6.20;99.90;;;;;;5092350;28;20279;-74
2021/04/22 03:32:56;;;;;;;;;;;6.20;99.90;;;;;;5092651;28;19915;-74
2021/04/22 03:35:22;;;;;;;;;;;6.20;99.90;;;;;;5093550;28;20364;-74
2021/04/22 03:37:48;;;;;;;;;;;6.20;99.90;;;;;;5091940;28;19912;-73
2021/04/22 03:40:14;;;;;;;;;;;6.20;99.90;;;;;;5093657;28;19915;-73
2021/04/22 03:42:40;;;;;;;;;;;6.30;99.90;;;;;;5091455;28;19908;-74
2021/04/22 03:45:07;;;;;;;;;;;6.30;99.90;;;;;;5093422;28;19977;-74
2021/04/22 03:47:32;;;;;;;;;;;6.30;99.90;;;;;;5092866;28;19908;-74
2021/04/22 03:49:58;;;;;;;;;;;6.30;99.90;;;;;;5093121;28;20447;-72
2021/04/22 03:52:23;;;;;;;;;;;6.30;99.90;;;;;;5091293;28;19915;-75
2021/04/22 03:54:49;;;;;;;;;;;6.30;99.90;;;;;;5093580;28;19998;-74
2021/04/22 03:57:14;;;;;;;;;;;6.30;99.90;;;;;;5092233;28;19916;-74
2021/04/22 03:59:40;;;;;;;;;;;6.40;99.90;;;;;;5093132;28;19911;-75
2021/04/22 04:02:05;;;;;;;;;;;6.40;99.90;;;;;;5090509;28;19912;-75
2021/04/22 04:04:31;;;;;;;;;;;6.40;99.90;;;;;;5092883;28;19908;-74
2021/04/22 04:06:56;;;;;;;;;;;6.50;99.90;;;;;;5093462;28;19972;-74
2021/04/22 04:09:22;;;;;;;;;;;6.50;99.90;;;;;;5092328;28;19908;-74
2021/04/22 04:11:48;;;;;;;;;;;6.50;99.90;;;;;;5092265;28;19912;-75
2021/04/22 04:14:13;;;;;;;;;;;6.60;99.90;;;;;;5091487;28;19957;-75
2021/04/22 04:16:39;;;;;;;;;;;6.60;99.90;;;;;;5092148;28;19919;-76
2021/04/22 04:19:04;;;;;;;;;;;6.60;99.90;;;;;;5091211;28;19934;-75
2021/04/22 04:21:30;;;;;;;;;;;6.60;99.90;;;;;;5092922;28;19908;-75
2021/04/22 04:23:55;;;;;;;;;;;6.50;99.90;;;;;;5092108;28;19908;-75
2021/04/22 04:26:21;;;;;;;;;;;6.40;99.90;;;;;;5092432;28;20269;-74
2021/04/22 04:28:46;;;;;;;;;;;6.50;99.90;;;;;;5091854;28;19915;-74
2021/04/22 04:31:12;;;;;;;;;;;6.50;99.90;;;;;;5093013;28;20415;-73
2021/04/22 04:33:37;;;;;;;;;;;6.50;99.90;;;;;;5091214;28;19916;-75
2021/04/22 04:36:03;;;;;;;;;;;6.50;99.90;;;;;;5093366;28;19908;-73
2021/04/22 04:38:29;;;;;;;;;;;6.50;99.90;;;;;;5091045;28;19965;-75
2021/04/22 04:40:54;;;;;;;;;;;6.50;99.90;;;;;;5093948;28;20379;-74
2021/04/22 04:43:20;;;;;;;;;;;6.50;99.90;;;;;;5092987;28;19940;-74
2021/04/22 04:45:45;;;;;;;;;;;6.50;99.90;;;;;;5109631;28;19939;-73
2021/04/22 04:48:11;;;;;;;;;;;6.50;99.90;;;;;;5113117;28;19901;-73
2021/04/22 04:50:36;;;;;;;;;;;6.60;99.90;;;;;;5112455;28;19909;-74
2021/04/22 04:53:02;;;;;;;;;;;6.70;99.90;;;;;;5113341;28;21318;-75
2021/04/22 04:55:27;;;;;;;;;;;6.60;99.90;;;;;;5115476;28;19907;-74
2021/04/22 04:57:53;;;;;;;;;;;6.60;99.90;;;;;;5115776;28;19927;-74
2021/04/22 05:00:19;;;;;;;;;;;6.60;99.90;;;;;;5111354;28;19965;-72
2021/04/22 05:02:45;;;;;;;;;;;6.70;99.90;;;;;;5095895;28;19937;-74
2021/04/22 05:05:10;;;;;;;;;;;6.60;99.90;;;;;;5093811;28;19995;-74
2021/04/22 05:07:36;;;;;;;;;;;6.70;99.90;;;;;;5093563;28;19908;-74
2021/04/22 05:10:02;;;;;;;;;;;6.70;99.90;;;;;;5092404;28;20272;-75
2021/04/22 05:12:28;;;;;;;;;;;6.80;99.90;;;;;;5089674;28;19959;-74
2021/04/22 05:14:53;;;;;;;;;;;6.80;99.90;;;;;;5092381;28;20364;-75
2021/04/22 05:17:19;;;;;;;;;;;6.80;99.90;;;;;;5092094;28;20007;-75
2021/04/22 05:19:45;;;;;;;;;;;6.80;99.90;;;;;;5092239;28;19930;-75
2021/04/22 05:22:10;;;;;;;;;;;6.80;99.90;;;;;;5091893;28;19908;-75
2021/04/22 05:24:36;;;;;;;;;;;6.80;99.90;;;;;;5089975;28;20025;-73
2021/04/22 05:27:01;;;;;;;;;;;6.80;99.90;;;;;;5090834;28;20036;-74
2021/04/22 05:29:27;;;;;;;;;;;6.70;99.90;;;;;;5093943;28;19996;-74
2021/04/22 05:31:53;;;;;;;;;;;6.80;99.90;;;;;;5092653;28;19908;-74
2021/04/22 05:34:18;;;;;;;;;;;6.80;99.90;;;;;;5094774;28;19954;-74
2021/04/22 05:36:44;;;;;;;;;;;6.80;99.90;;;;;;5094188;28;19938;-74
2021/04/22 05:39:09;;;;;;;;;;;7.00;99.90;;;;;;5093097;28;19919;-74
2021/04/22 05:41:35;;;;;;;;;;;7.00;99.90;;;;;;5093558;28;19939;-74
2021/04/22 05:44:01;;;;;;;;;;;7.10;99.90;;;;;;5094209;28;20275;-74
2021/04/22 05:46:27;;;;;;;;;;;7.10;99.90;;;;;;5095915;28;20324;-73
2021/04/22 05:48:52;;;;;;;;;;;7.10;99.90;;;;;;5094260;28;19943;-74
2021/04/22 05:51:18;;;;;;;;;;;7.20;99.90;;;;;;5094276;28;19959;-74
2021/04/22 05:53:44;;;;;;;;;;;7.20;99.90;;;;;;5094848;28;19908;-74
2021/04/22 05:56:09;;;;;;;;;;;7.20;99.90;;;;;;5095242;28;19998;-74
2021/04/22 05:58:35;;;;;;;;;;;7.30;99.90;;;;;;5096140;28;19912;-74
2021/04/22 06:01:00;;;;;;;;;;;7.40;99.90;;;;;;5094595;28;19916;-75
2021/04/22 06:03:26;;;;;;;;;;;7.50;99.90;;;;;;5095234;28;19927;-74
2021/04/22 06:05:51;;;;;;;;;;;7.50;99.90;;;;;;5095313;28;19908;-75
2021/04/22 06:08:17;;;;;;;;;;;7.60;99.90;;;;;;5095528;28;20056;-74
2021/04/22 06:10:43;;;;;;;;;;;7.60;99.90;;;;;;5093944;28;19915;-73
2021/04/22 06:13:08;;;;;;;;;;;7.70;99.90;;;;;;5094859;28;19914;-75
2021/04/22 06:15:34;;;;;;;;;;;7.70;99.90;;;;;;5095284;28;20406;-76
2021/04/22 06:18:00;;;;;;;;;;;7.80;99.90;;;;;;5095570;28;19912;-75
2021/04/22 06:20:26;;;;;;;;;;;7.90;99.90;;;;;;5096428;28;19908;-75
2021/04/22 06:22:51;;;;;;;;;;;8.00;99.90;;;;;;5096743;28;20360;-75
2021/04/22 06:25:17;;;;;;;;;;;7.90;99.90;;;;;;5099052;28;19918;-74
2021/04/22 06:27:43;;;;;;;;;;;8.00;99.90;;;;;;5116063;28;19983;-74
2021/04/22 06:30:10;;;;;;;;;;;8.00;99.90;;;;;;5116623;28;19923;-74
2021/04/22 06:32:35;;;;;;;;;;;8.00;99.90;;;;;;5115010;28;19969;-76
2021/04/22 06:35:01;;;;;;;;;;;8.10;99.90;;;;;;5117831;28;19896;-75
2021/04/22 06:37:27;;;;;;;;;;;8.00;99.90;;;;;;5118345;28;19904;-76
2021/04/22 06:39:52;;;;;;;;;;;8.00;99.90;;;;;;5117238;28;19896;-76
2021/04/22 06:42:18;;;;;;;;;;;8.10;99.90;;;;;;5102368;28;19919;-74
2021/04/22 06:44:43;;;;;;;;;;;8.10;99.90;;;;;;5098553;28;20360;-74
2021/04/22 06:47:09;;;;;;;;;;;8.30;99.90;;;;;;5095861;28;19919;-73
2021/04/22 06:49:35;;;;;;;;;;;8.10;99.90;;;;;;5095240;28;19908;-73
2021/04/22 06:52:00;;;;;;;;;;;8.10;99.90;;;;;;5095612;28;20327;-74
2021/04/22 06:54:26;;;;;;;;;;;8.20;99.90;;;;;;5094601;28;19908;-74
2021/04/22 06:56:52;;;;;;;;;;;8.20;99.90;;;;;;5093215;28;20372;-73
2021/04/22 06:59:18;;;;;;;;;;;8.30;99.90;;;;;;5095123;28;19912;-74
2021/04/22 07:01:43;;;;;;;;;;;8.30;99.90;;;;;;5094257;28;20387;-74
2021/04/22 07:04:09;;;;;;;;;;;8.40;99.90;;;;;;5091338;28;19955;-74
2021/04/22 07:06:34;;;;;;;;;;;8.60;99.90;;;;;;5094474;28;19915;-75
2021/04/22 07:09:00;;;;;;;;;;;8.80;99.90;;;;;;5093012;28;20360;-75
2021/04/22 07:11:25;;;;;;;;;;;8.90;99.90;;;;;;5088674;28;19908;-74
2021/04/22 07:13:51;;;;;;;;;;;9.20;99.90;;;;;;5092835;28;20298;-73
2021/04/22 07:16:16;;;;;;;;;;;9.30;99.90;;;;;;5094812;28;19912;-74
2021/04/22 07:18:42;;;;;;;;;;;9.20;99.90;;;;;;5093129;28;19912;-75
2021/04/22 07:21:08;;;;;;;;;;;9.20;99.90;;;;;;5089748;28;19916;-74
2021/04/22 07:23:33;;;;;;;;;;;9.20;99.90;;;;;;5094922;28;19915;-74
2021/04/22 07:25:59;;;;;;;;;;;9.20;99.90;;;;;;5091309;28;19908;-75
2021/04/22 07:28:24;;;;;;;;;;;9.30;99.90;;;;;;5093775;28;19920;-74
2021/04/22 07:30:50;;;;;;;;;;;9.30;99.90;;;;;;5095460;28;19915;-73
2021/04/22 07:33:16;;;;;;;;;;;9.40;99.90;;;;;;5094538;28;19912;-75
2021/04/22 07:35:41;;;;;;;;;;;9.20;99.90;;;;;;5094039;28;19952;-73
2021/04/22 07:38:08;;;;;;;;;;;9.30;99.90;;;;;;5091712;28;19912;-73
2021/04/22 07:40:33;;;;;;;;;;;9.10;99.90;;;;;;5093783;28;20477;-73
2021/04/22 07:42:59;;;;;;;;;;;9.10;99.90;;;;;;5093564;28;19998;-75
2021/04/22 07:45:26;;;;;;;;;;;9.10;99.90;;;;;;5093101;28;20291;-74
2021/04/22 07:47:52;;;;;;;;;;;9.20;99.90;;;;;;5094877;28;19907;-74
2021/04/22 07:50:20;;;;;;;;;;;9.40;99.90;;;;;;5093621;28;20280;-74
2021/04/22 07:52:46;;;;;;;;;;;9.50;99.90;;;;;;5079961;28;19915;-74
2021/04/22 07:55:13;;;;;;;;;;;9.50;99.90;;;;;;5089259;28;20279;-74
2021/04/22 07:57:38;;;;;;;;;;;9.60;99.90;;;;;;5093819;28;20374;-72
2021/04/22 08:00:06;;;;;;;;;;;9.60;99.90;;;;;;5093570;28;19908;-74
2021/04/22 08:02:31;;;;;;;;;;;9.50;99.90;;;;;;5093309;28;19908;-74
2021/04/22 08:04:57;;;;;;;;;;;9.50;99.90;;;;;;5088045;28;19915;-74
2021/04/22 08:07:22;;;;;;;;;;;9.70;99.90;;;;;;5091329;28;19923;-74
2021/04/22 08:09:48;;;;;;;;;;;9.90;99.90;;;;;;5090606;28;19909;-75
2021/04/22 08:12:13;;;;;;;;;;;10.10;99.90;;;;;;5112818;28;19892;-75
2021/04/22 08:14:39;;;;;;;;;;;10.20;99.90;;;;;;5113989;28;19892;-74
2021/04/22 08:17:05;;;;;;;;;;;10.20;99.90;;;;;;5114748;28;19892;-76
2021/04/22 08:19:32;;;;;;;;;;;10.20;99.90;;;;;;5117945;28;19896;-75
2021/04/22 08:21:59;;;;;;;;;;;10.20;99.90;;;;;;5118220;28;19908;-75
2021/04/22 08:24:24;;;;;;;;;;;10.30;99.90;;;;;;5118160;28;19904;-75
2021/04/22 08:26:50;;;;;;;;;;;10.40;99.90;;;;;;5117505;28;19900;-75
2021/04/22 08:29:15;;;;;;;;;;;10.40;99.90;;;;;;5102101;28;19912;-75
2021/04/22 08:31:41;;;;;;;;;;;10.30;99.90;;;;;;5096282;28;20364;-74
2021/04/22 08:34:07;;;;;;;;;;;10.40;99.90;;;;;;5095640;28;20390;-74
2021/04/22 08:36:33;;;;;;;;;;;10.30;99.90;;;;;;5094956;28;19908;-74
2021/04/22 08:38:58;;;;;;;;;;;10.10;99.90;;;;;;5089943;28;19916;-75
2021/04/22 08:41:24;;;;;;;;;;;10.20;99.90;;;;;;5092741;28;19957;-75
2021/04/22 08:43:50;;;;;;;;;;;10.20;99.90;;;;;;5091136;28;19947;-75
2021/04/22 08:46:15;;;;;;;;;;;10.30;99.90;;;;;;5091842;28;19915;-74
2021/04/22 08:48:42;;;;;;;;;;;10.30;99.90;;;;;;5091423;28;21499;-74
2021/04/22 08:51:08;;;;;;;;;;;10.30;99.90;;;;;;5093158;28;19918;-74
2021/04/22 08:53:35;;;;;;;;;;;10.20;99.90;;;;;;5093515;28;19954;-73
2021/04/22 08:56:01;;;;;;;;;;;10.20;99.90;;;;;;5093042;28;20257;-75
2021/04/22 08:58:27;;;;;;;;;;;10.40;99.90;;;;;;5086931;28;19924;-74
2021/04/22 09:01:05;;;;;;;;;;;10.10;99.90;;;;;;5091269;28;19954;-75
2021/04/22 09:03:31;;;;;;;;;;;10.10;99.90;;;;;;5093093;28;19953;-74
2021/04/22 09:05:56;;;;;;;;;;;10.10;99.90;;;;;;5078714;28;19908;-75
2021/04/22 09:08:36;;;;;;;;;;;10.20;99.70;;;;;;5085904;28;19908;-75
2021/04/22 09:11:02;;;;;;;;;;;10.60;99.90;;;;;;5091260;28;19931;-75
2021/04/22 09:13:27;;;;;;;;;;;10.90;98.70;;;;;;5092825;28;19951;-75
2021/04/22 09:15:59;;;;;;;;;;;10.90;99.40;;;;;;5092687;28;20315;-75
2021/04/22 09:18:24;;;;;;;;;;;10.80;99.70;;;;;;5091883;28;19919;-75
2021/04/22 09:20:52;;;;;;;;;;;10.70;99.20;;;;;;5092401;28;19912;-74
2021/04/22 09:23:22;;;;;;;;;;;10.50;99.80;;;;;;5091060;28;20002;-75
2021/04/22 09:26:02;;;;;;;;;;;10.60;99.80;;;;;;5091870;28;19912;-75
2021/04/22 09:28:38;;;;;;;;;;;10.80;99.90;;;;;;5092231;28;19987;-75
2021/04/22 09:31:05;;;;;;;;;;;10.80;99.50;;;;;;5093166;28;20356;-74
2021/04/22 09:33:31;;;;;;;;;;;10.50;99.30;;;;;;5092267;28;19955;-75
2021/04/22 09:36:23;;;;;;;;;;;10.70;99.70;;;;;;5092721;28;20024;-75
2021/04/22 09:38:55;;;;;;;;;;;11.00;99.10;;;;;;5090311;28;19919;-75
2021/04/22 09:41:23;;;;;;;;;;;10.90;98.50;;;;;;5089575;28;19908;-75
2021/04/22 09:43:59;;;;;;;;;;;10.90;98.60;;;;;;5092563;28;19915;-76
2021/04/22 09:46:24;;;;;;;;;;;11.20;98.70;;;;;;5092984;28;19930;-74
2021/04/22 09:48:50;;;;;;;;;;;11.40;98.50;;;;;;5092880;28;19908;-75
2021/04/22 09:51:30;;;;;;;;;;;11.30;98.00;;;;;;5091981;28;19977;-74
2021/04/22 09:54:06;;;;;;;;;;;11.30;98.50;;;;;;5093473;28;19915;-74
2021/04/22 09:56:42;;;;;;;;;;;11.20;98.20;;;;;;5095107;28;19955;-74
2021/04/22 09:59:08;;;;;;;;;;;11.20;99.90;;;;;;5080485;28;20399;-74
2021/04/22 10:01:34;;;;;;;;;;;11.30;98.90;;;;;;5091634;28;19908;-74
2021/04/22 10:03:59;;;;;;;;;;;11.10;98.70;;;;;;5102131;28;19919;-76
2021/04/22 10:06:35;;;;;;;;;;;11.20;98.70;;;;;;5112120;28;20390;-75
2021/04/22 10:09:01;;;;;;;;;;;11.30;98.50;;;;;;5114813;28;19999;-75
2021/04/22 10:11:26;;;;;;;;;;;11.20;98.80;;;;;;5114338;28;19912;-75
2021/04/22 10:13:52;;;;;;;;;;;11.20;99.30;;;;;;5107950;28;19908;-74
2021/04/22 10:16:36;;;;;;;;;;;11.30;98.40;;;;;;5100146;28;19918;-74
2021/04/22 10:19:02;;;;;;;;;;;11.50;98.40;;;;;;5095950;28;20005;-72
2021/04/22 10:21:28;;;;;;;;;;;11.80;98.20;;;;;;5097134;28;19922;-75
2021/04/22 10:24:04;;;;;;;;;;;11.90;97.60;;;;;;5096278;28;19973;-73
2021/04/22 10:26:29;;;;;;;;;;;12.20;97.00;;;;;;5096714;28;19915;-73
2021/04/22 10:28:55;;;;;;;;;;;12.60;96.90;;;;;;5095587;28;20329;-72
2021/04/22 10:31:25;;;;;;;;;;;12.80;96.20;;;;;;5096941;28;20317;-72
2021/04/22 10:33:52;;;;;;;;;;;13.00;96.20;;;;;;5095103;28;19908;-72
2021/04/22 10:36:19;;;;;;;;;;;13.10;95.30;;;;;;5096702;28;19924;-72
2021/04/22 10:38:45;;;;;;;;;;;13.10;94.80;;;;;;5096018;28;20276;-72
2021/04/22 10:41:11;;;;;;;;;;;13.10;95.20;;;;;;5096274;28;19915;-71
2021/04/22 10:43:39;;;;;;;;;;;13.10;96.90;;;;;;5094902;28;19908;-71
2021/04/22 10:46:05;;;;;;;;;;;12.60;95.70;;;;;;5095506;28;19915;-72
2021/04/22 10:48:30;;;;;;;;;;;12.20;95.60;;;;;;5095589;28;19908;-73
2021/04/22 10:50:57;;;;;;;;;;;12.00;97.30;;;;;;5095534;28;19953;-73
2021/04/22 10:53:23;;;;;;;;;;;12.30;96.50;;;;;;5095201;28;20394;-73
2021/04/22 10:55:50;;;;;;;;;;;12.60;96.40;;;;;;5095781;28;19946;-73
2021/04/22 10:58:21;;;;;;;;;;;12.60;95.90;;;;;;5095199;28;19962;-73
2021/04/22 11:00:50;;;;;;;;;;;12.60;95.60;;;;;;5094305;28;19914;-72
2021/04/22 11:03:27;;;;;;;;;;;12.60;96.10;;;;;;5095701;28;19908;-72
2021/04/22 11:05:55;;;;;;;;;;;12.40;96.00;;;;;;5093683;28;19911;-73
2021/04/22 11:08:30;;;;;;;;;;;12.40;95.30;;;;;;5093643;28;19915;-72
2021/04/22 11:10:56;;;;;;;;;;;12.40;95.60;;;;;;5094602;28;19943;-74
2021/04/22 11:13:32;;;;;;;;;;;12.60;95.00;;;;;;5095197;28;19908;-72
2021/04/22 11:15:59;;;;;;;;;;;12.50;95.20;;;;;;5095564;28;19911;-71
2021/04/22 11:18:38;;;;;;;;;;;12.20;95.90;;;;;;5093765;28;19912;-72
2021/04/22 11:21:05;;;;;;;;;;;12.10;95.80;;;;;;5093962;28;19908;-72
2021/04/22 11:23:41;;;;;;;;;;;12.30;97.40;;;;;;5093175;28;19908;-74
2021/04/22 11:26:16;;;;;;;;;;;12.30;96.50;;;;;;5093925;28;19908;-73
2021/04/22 11:28:42;;;;;;;;;;;12.20;95.80;;;;;;5094667;28;20345;-72
2021/04/22 11:31:09;;;;;;;;;;;12.30;96.70;;;;;;5094154;28;19923;-73
2021/04/22 11:33:35;;;;;;;;;;;12.60;95.80;;;;;;5093474;28;20033;-72
2021/04/22 11:36:20;;;;;;;;;;;12.40;96.20;;;;;;5090678;28;19911;-73
2021/04/22 11:38:48;;;;;;;;;;;12.40;96.00;;;;;;5078653;28;19998;-72
2021/04/22 11:41:14;;;;;;;;;;;12.40;97.00;;;;;;5093708;28;19912;-72
2021/04/22 11:43:40;;;;;;;;;;;12.70;97.10;;;;;;5094702;28;19969;-73
2021/04/22 11:46:05;;;;;;;;;;;12.90;95.90;;;;;;5093643;28;19923;-72
2021/04/22 11:48:41;;;;;;;;;;;12.50;96.30;;;;;;5094896;28;20362;-72
2021/04/22 11:51:07;;;;;;;;;;;12.20;96.30;;;;;;5094869;28;20378;-72
2021/04/22 11:53:36;;;;;;;;;;;12.30;96.50;;;;;;5094072;28;20315;-73
2021/04/22 11:56:03;;;;;;;;;;;12.30;96.70;;;;;;5095290;28;20426;-72
2021/04/22 11:58:29;;;;;;;;;;;12.50;96.40;;;;;;5094168;28;19923;-73
2021/04/22 12:00:59;;;;;;;;;;;12.80;96.40;;;;;;5095559;28;19908;-74
2021/04/22 12:03:29;;;;;;;;;;;12.90;96.10;;;;;;5094884;28;19915;-73
2021/04/22 12:05:57;;;;;;;;;;;13.20;94.60;;;;;;5096910;28;19961;-74
2021/04/22 12:08:29;;;;;;;;;;;13.00;95.30;;;;;;5097559;28;20343;-73
2021/04/22 12:10:55;;;;;;;;;;;12.90;95.60;;;;;;5107512;28;19908;-73
2021/04/22 12:13:21;;;;;;;;;;;12.90;95.50;;;;;;5111897;28;19976;-73
2021/04/22 12:15:47;;;;;;;;;;;13.10;95.60;;;;;;5100835;28;19946;-72
2021/04/22 12:18:23;;;;;;;;;;;13.00;94.90;;;;;;5110692;28;19999;-72
2021/04/22 12:20:50;;;;;;;;;;;12.80;95.50;;;;;;5107443;28;19892;-74
2021/04/22 12:23:25;;;;;;;;;;;12.80;95.30;;;;;;5114364;28;19908;-73
2021/04/22 12:25:51;;;;;;;;;;;12.80;95.40;;;;;;5116980;28;19892;-72
2021/04/22 12:28:16;;;;;;;;;;;12.60;95.90;;;;;;5102342;28;19920;-73
2021/04/22 12:30:46;;;;;;;;;;;12.60;95.90;;;;;;5108614;28;19912;-73
2021/04/22 12:33:11;;;;;;;;;;;12.60;95.30;;;;;;5094550;28;20271;-73
2021/04/22 12:35:38;;;;;;;;;;;12.80;96.70;;;;;;5095686;28;20019;-72
2021/04/22 12:38:30;;;;;;;;;;;12.70;95.00;;;;;;5092482;28;19916;-74
2021/04/22 12:40:57;;;;;;;;;;;12.90;97.70;;;;;;5095623;28;19908;-73
2021/04/22 12:43:23;;;;;;;;;;;13.40;94.70;;;;;;5082697;28;19908;-74
2021/04/22 12:45:49;;;;;;;;;;;13.30;94.80;;;;;;5093177;28;19915;-73
2021/04/22 12:48:15;;;;;;;;;;;13.00;95.00;;;;;;5094588;28;19920;-73
2021/04/22 12:50:43;;;;;;;;;;;13.00;95.00;;;;;;5092519;28;19911;-73
2021/04/22 12:53:13;;;;;;;;;;;12.80;95.20;;;;;;5092478;28;20360;-73
2021/04/22 12:55:42;;;;;;;;;;;12.60;95.20;;;;;;5091801;28;20216;-75
2021/04/22 12:58:08;;;;;;;;;;;12.30;96.40;;;;;;5092901;28;20442;-73
2021/04/22 13:00:39;;;;;;;;;;;12.50;96.40;;;;;;5093047;28;19908;-74
2021/04/22 13:03:10;;;;;;;;;;;12.90;96.10;;;;;;5093153;28;19915;-73
2021/04/22 13:05:39;;;;;;;;;;;13.40;96.00;;;;;;5091541;28;20357;-73
2021/04/22 13:08:05;;;;;;;;;;;13.10;95.60;;;;;;5092867;28;19991;-73
2021/04/22 13:10:31;;;;;;;;;;;12.80;95.60;;;;;;5092620;28;20424;-74
2021/04/22 13:12:56;;;;;;;;;;;12.90;96.30;;;;;;5090991;28;19915;-73
2021/04/22 13:15:22;;;;;;;;;;;13.20;96.00;;;;;;5092672;28;19908;-74
2021/04/22 13:17:48;;;;;;;;;;;13.30;95.60;;;;;;5092883;28;19912;-73
2021/04/22 13:20:24;;;;;;;;;;;13.60;95.80;;;;;;5091827;28;20383;-73
2021/04/22 13:22:51;;;;;;;;;;;13.60;94.40;;;;;;5092302;28;20336;-73
2021/04/22 13:25:18;;;;;;;;;;;13.40;95.40;;;;;;5091147;28;19908;-74
2021/04/22 13:27:43;;;;;;;;;;;13.50;94.80;;;;;;5093464;28;19958;-74
2021/04/22 13:30:09;;;;;;;;;;;13.40;95.50;;;;;;5092084;28;19961;-74
2021/04/22 13:32:35;;;;;;;;;;;13.30;95.00;;;;;;5074909;28;19944;-75
2021/04/22 13:35:01;;;;;;;;;;;13.40;94.80;;;;;;5108013;28;19915;-74
2021/04/22 13:37:27;;;;;;;;;;;13.60;94.60;;;;;;5092666;28;20275;-74
2021/04/22 13:39:53;;;;;;;;;;;13.80;94.90;;;;;;5092630;28;19908;-73
2021/04/22 13:42:28;;;;;;;;;;;13.90;94.80;;;;;;5093361;28;19908;-73
2021/04/22 13:44:56;;;;;;;;;;;13.60;94.30;;;;;;5092963;28;20000;-73
2021/04/22 13:47:23;;;;;;;;;;;13.60;94.90;;;;;;5091971;28;19962;-72
2021/04/22 13:49:50;;;;;;;;;;;13.80;94.80;;;;;;5093281;28;19916;-74
2021/04/22 13:52:18;;;;;;;;;;;14.00;94.30;;;;;;5095822;28;19916;-73
2021/04/22 13:54:48;;;;;;;;;;;13.80;95.20;;;;;;5096293;28;20387;-72
2021/04/22 13:57:15;;;;;;;;;;;13.80;94.30;;;;;;5096333;28;19911;-73
2021/04/22 13:59:41;;;;;;;;;;;13.80;94.00;;;;;;5095143;28;20280;-72
2021/04/22 14:02:08;;;;;;;;;;;13.90;94.50;;;;;;5094762;28;20351;-74
2021/04/22 14:04:34;;;;;;;;;;;14.00;94.40;;;;;;5093550;28;19908;-73
2021/04/22 14:06:59;;;;;;;;;;;14.00;94.40;;;;;;5094647;28;20372;-74
2021/04/22 14:09:33;;;;;;;;;;;14.10;93.90;;;;;;5095609;28;19908;-72
2021/04/22 14:12:05;;;;;;;;;;;14.00;94.00;;;;;;5097028;28;20260;-74
2021/04/22 14:14:31;;;;;;;;;;;13.80;94.10;;;;;;5095808;28;20011;-73
2021/04/22 14:16:57;;;;;;;;;;;13.70;94.20;;;;;;5096402;28;19944;-74
2021/04/22 14:19:24;;;;;;;;;;;14.00;94.60;;;;;;5097524;28;19912;-74
2021/04/22 14:21:51;;;;;;;;;;;14.30;93.90;;;;;;5097528;28;20364;-74